createdAt,value
2017-09-10T00:01:28.092Z,13.90
2017-09-10T00:03:55.478Z,13.90
2017-09-10T00:06:23.053Z,13.73
2017-09-10T00:08:50.473Z,13.50
2017-09-10T00:11:17.848Z,13.70
2017-09-10T00:13:45.278Z,13.33
2017-09-10T00:16:12.671Z,14.17
2017-09-10T00:18:40.073Z,13.90
2017-09-10T00:21:07.494Z,13.87
2017-09-10T00:23:34.904Z,14.60
2017-09-10T00:26:02.295Z,13.80
2017-09-10T00:28:29.819Z,13.37
2017-09-10T00:30:57.220Z,13.40
2017-09-10T00:33:24.612Z,13.60
2017-09-10T00:35:52.135Z,14.30
2017-09-10T00:38:19.540Z,14.67
2017-09-10T00:40:46.960Z,14.57
2017-09-10T00:43:14.358Z,13.93
2017-09-10T00:45:41.750Z,14.27
2017-09-10T00:48:09.147Z,14.90
2017-09-10T00:50:36.698Z,14.30
2017-09-10T00:53:04.090Z,14.33
2017-09-10T00:55:31.492Z,13.37
2017-09-10T00:57:59.053Z,13.57
2017-09-10T01:00:26.439Z,14.30
2017-09-10T01:02:53.830Z,13.20
2017-09-10T01:05:21.402Z,13.67
2017-09-10T01:07:48.815Z,13.57
2017-09-10T01:10:17.106Z,12.97
2017-09-10T01:12:44.502Z,14.03
2017-09-10T01:15:11.922Z,13.67
2017-09-10T01:17:39.307Z,14.17
2017-09-10T01:20:06.849Z,14.10
2017-09-10T01:22:34.247Z,14.03
2017-09-10T01:25:01.664Z,14.67
2017-09-10T01:27:29.216Z,13.40
2017-09-10T01:29:56.606Z,14.30
2017-09-10T01:32:24.015Z,13.27
2017-09-10T01:34:51.433Z,14.57
2017-09-10T01:37:18.827Z,13.97
2017-09-10T01:39:46.224Z,13.93
2017-09-10T01:42:14.101Z,15.30
2017-09-10T01:44:41.475Z,14.33
2017-09-10T01:47:08.877Z,14.33
2017-09-10T01:49:36.392Z,14.17
2017-09-10T01:52:03.782Z,13.30
2017-09-10T01:54:31.172Z,12.63
2017-09-10T01:56:58.711Z,14.10
2017-09-10T01:59:26.126Z,13.33
2017-09-10T02:01:53.518Z,14.07
2017-09-10T02:04:21.045Z,14.13
2017-09-10T02:06:48.478Z,13.77
2017-09-10T02:09:16.669Z,13.10
2017-09-10T02:11:44.115Z,13.60
2017-09-10T02:14:11.507Z,13.20
2017-09-10T02:16:38.903Z,13.70
2017-09-10T02:19:06.463Z,13.87
2017-09-10T02:21:33.852Z,13.40
2017-09-10T02:24:01.243Z,13.07
2017-09-10T02:26:28.773Z,12.60
2017-09-10T02:28:56.423Z,13.13
2017-09-10T02:31:23.814Z,13.53
2017-09-10T02:33:52.156Z,13.07
2017-09-10T02:36:19.547Z,14.27
2017-09-10T02:38:46.942Z,13.90
2017-09-10T02:41:14.494Z,13.20
2017-09-10T02:43:41.879Z,13.57
2017-09-10T02:46:09.270Z,13.10
2017-09-10T02:48:36.672Z,13.97
2017-09-10T02:51:04.063Z,13.53
2017-09-10T02:53:31.480Z,13.10
2017-09-10T02:55:58.901Z,12.33
2017-09-10T02:58:26.294Z,13.77
2017-09-10T03:00:53.694Z,13.10
2017-09-10T03:03:21.223Z,14.00
2017-09-10T03:05:48.610Z,13.73
2017-09-10T03:08:16.026Z,13.73
2017-09-10T03:10:43.583Z,13.37
2017-09-10T03:13:10.977Z,13.00
2017-09-10T03:15:38.363Z,14.00
2017-09-10T03:18:05.916Z,12.90
2017-09-10T03:20:33.306Z,13.50
2017-09-10T03:23:01.146Z,13.83
2017-09-10T03:25:28.695Z,13.50
2017-09-10T03:27:56.082Z,13.37
2017-09-10T03:30:23.475Z,12.43
2017-09-10T03:32:51.018Z,13.83
2017-09-10T03:35:18.410Z,13.20
2017-09-10T03:37:45.797Z,12.27
2017-09-10T03:40:13.351Z,13.10
2017-09-10T03:42:40.758Z,12.53
2017-09-10T03:45:08.159Z,12.10
2017-09-10T03:47:35.699Z,12.30
2017-09-10T03:50:03.094Z,13.10
2017-09-10T03:52:30.482Z,12.10
2017-09-10T03:54:57.992Z,13.63
2017-09-10T03:57:25.385Z,12.70
2017-09-10T03:59:52.774Z,12.20
2017-09-10T04:02:20.179Z,12.93
2017-09-10T04:04:47.572Z,12.33
2017-09-10T04:07:14.964Z,13.40
2017-09-10T04:09:42.367Z,12.40
2017-09-10T04:12:09.763Z,13.00
2017-09-10T04:14:37.155Z,12.90
2017-09-10T04:17:04.703Z,12.30
2017-09-10T04:19:32.098Z,12.53
2017-09-10T04:21:59.493Z,12.40
2017-09-10T04:24:26.994Z,12.10
2017-09-10T04:26:54.447Z,12.67
2017-09-10T04:29:21.838Z,12.60
2017-09-10T04:31:49.383Z,12.80
2017-09-10T04:34:16.778Z,12.77
2017-09-10T04:36:44.172Z,12.10
2017-09-10T04:39:11.586Z,13.10
2017-09-10T04:41:38.979Z,12.80
2017-09-10T04:44:06.372Z,12.63
2017-09-10T04:46:33.798Z,12.90
2017-09-10T04:49:01.200Z,12.90
2017-09-10T04:51:28.597Z,12.60
2017-09-10T04:53:56.099Z,13.50
2017-09-10T04:56:23.490Z,13.80
2017-09-10T04:58:50.887Z,13.80
2017-09-10T05:01:18.317Z,14.63
2017-09-10T05:03:45.714Z,14.87
2017-09-10T05:06:13.115Z,14.47
2017-09-10T05:08:40.620Z,13.40
2017-09-10T05:11:08.014Z,14.07
2017-09-10T05:13:35.407Z,14.07
2017-09-10T05:16:02.990Z,14.40
2017-09-10T05:18:30.396Z,13.40
2017-09-10T05:20:57.782Z,14.23
2017-09-10T05:23:25.291Z,13.77
2017-09-10T05:25:52.683Z,14.20
2017-09-10T05:28:20.074Z,13.73
2017-09-10T05:30:47.619Z,13.60
2017-09-10T05:33:15.008Z,13.70
2017-09-10T05:35:42.398Z,13.23
2017-09-10T05:38:09.951Z,13.87
2017-09-10T05:40:37.355Z,13.97
2017-09-10T05:43:04.743Z,13.03
2017-09-10T05:45:32.175Z,13.90
2017-09-10T05:47:59.566Z,13.40
2017-09-10T05:50:26.956Z,12.60
2017-09-10T05:52:54.463Z,12.90
2017-09-10T05:55:21.854Z,12.67
2017-09-10T05:57:49.246Z,12.00
2017-09-10T06:00:16.794Z,12.70
2017-09-10T06:02:44.190Z,12.43
2017-09-10T06:05:11.578Z,13.07
2017-09-10T06:07:39.111Z,13.27
2017-09-10T06:10:06.498Z,11.77
2017-09-10T06:12:33.891Z,13.53
2017-09-10T06:15:01.391Z,12.63
2017-09-10T06:17:28.833Z,13.27
2017-09-10T06:19:56.222Z,12.00
2017-09-10T06:22:23.627Z,12.30
2017-09-10T06:24:51.015Z,11.80
2017-09-10T06:27:18.418Z,12.30
2017-09-10T06:29:45.922Z,11.97
2017-09-10T06:32:13.311Z,11.53
2017-09-10T06:34:40.695Z,12.40
2017-09-10T06:37:08.243Z,12.13
2017-09-10T06:39:35.642Z,12.07
2017-09-10T06:42:03.034Z,11.70
2017-09-10T06:44:30.458Z,11.50
2017-09-10T06:46:57.846Z,12.03
2017-09-10T06:49:25.243Z,12.17
2017-09-10T06:51:53.038Z,11.30
2017-09-10T06:54:20.402Z,11.43
2017-09-10T06:56:47.811Z,11.30
2017-09-10T06:59:15.226Z,11.83
2017-09-10T07:01:42.614Z,11.80
2017-09-10T07:04:10.015Z,11.50
2017-09-10T07:06:37.415Z,11.70
2017-09-10T07:09:04.810Z,11.90
2017-09-10T07:11:32.361Z,11.23
2017-09-10T07:13:59.747Z,11.50
2017-09-10T07:16:27.138Z,10.97
2017-09-10T07:18:54.559Z,11.43
2017-09-10T07:21:22.548Z,10.90
2017-09-10T07:23:49.933Z,10.30
2017-09-10T07:26:17.346Z,9.83
2017-09-10T07:28:44.748Z,11.03
2017-09-10T07:31:12.176Z,10.60
2017-09-10T07:33:39.562Z,11.07
2017-09-10T07:36:06.971Z,10.70
2017-09-10T07:38:34.657Z,10.70
2017-09-10T07:41:02.051Z,9.90
2017-09-10T07:43:29.483Z,9.00
2017-09-10T07:45:56.874Z,9.87
2017-09-10T07:48:24.450Z,10.07
2017-09-10T07:50:51.846Z,10.10
2017-09-10T07:53:19.463Z,9.97
2017-09-10T07:55:46.870Z,9.63
2017-09-10T07:58:14.250Z,9.00
2017-09-10T08:00:42.179Z,9.57
2017-09-10T08:03:09.579Z,10.00
2017-09-10T08:05:36.967Z,9.83
2017-09-10T08:08:04.366Z,9.50
2017-09-10T08:10:31.757Z,8.93
2017-09-10T08:12:59.211Z,9.90
2017-09-10T08:15:26.603Z,9.40
2017-09-10T08:17:53.986Z,9.17
2017-09-10T08:20:21.544Z,9.30
2017-09-10T08:22:48.930Z,8.87
2017-09-10T08:25:16.343Z,9.70
2017-09-10T08:27:45.372Z,9.20
2017-09-10T08:30:13.112Z,9.00
2017-09-10T08:32:40.670Z,8.90
2017-09-10T08:35:08.206Z,8.80
2017-09-10T08:37:35.623Z,7.77
2017-09-10T08:40:03.019Z,7.80
2017-09-10T08:42:30.525Z,8.70
2017-09-10T08:44:57.903Z,7.50
2017-09-10T08:47:25.288Z,7.23
2017-09-10T08:49:52.673Z,6.57
2017-09-10T08:52:20.075Z,7.33
2017-09-10T08:54:47.614Z,7.10
2017-09-10T08:57:15.010Z,6.60
2017-09-10T08:59:42.395Z,7.60
2017-09-10T09:02:09.902Z,6.13
2017-09-10T09:04:37.274Z,7.30
2017-09-10T09:07:04.808Z,6.80
2017-09-10T09:09:32.193Z,6.03
2017-09-10T09:11:59.583Z,6.40
2017-09-10T09:14:26.982Z,6.60
2017-09-10T09:16:54.383Z,6.73
2017-09-10T09:19:21.786Z,6.80
2017-09-10T09:21:49.163Z,7.10
2017-09-10T09:24:16.584Z,6.30
2017-09-10T09:26:43.963Z,6.40
2017-09-10T09:29:11.347Z,6.30
2017-09-10T09:31:39.796Z,6.03
2017-09-10T09:34:07.196Z,5.97
2017-09-10T09:36:34.579Z,5.93
2017-09-10T09:39:04.063Z,6.00
2017-09-10T09:41:31.453Z,7.17
2017-09-10T09:43:58.849Z,7.70
2017-09-10T09:46:26.240Z,6.70
2017-09-10T09:48:53.627Z,7.77
2017-09-10T09:51:21.170Z,6.97
2017-09-10T09:53:48.552Z,7.23
2017-09-10T09:56:15.954Z,7.33
2017-09-10T09:58:43.351Z,7.40
2017-09-10T10:01:10.741Z,7.30
2017-09-10T10:03:38.146Z,6.60
2017-09-10T10:06:05.538Z,7.00
2017-09-10T10:08:32.937Z,8.23
2017-09-10T10:11:00.323Z,8.17
2017-09-10T10:13:27.840Z,7.97
2017-09-10T10:15:55.235Z,7.60
2017-09-10T10:18:22.609Z,7.87
2017-09-10T10:20:50.034Z,7.70
2017-09-10T10:23:17.430Z,8.00
2017-09-10T10:25:44.813Z,7.83
2017-09-10T10:28:13.059Z,7.70
2017-09-10T10:30:40.464Z,7.53
2017-09-10T10:33:07.854Z,8.60
2017-09-10T10:35:35.244Z,7.30
2017-09-10T10:38:02.784Z,7.63
2017-09-10T10:40:30.170Z,7.33
2017-09-10T10:42:57.556Z,7.07
2017-09-10T10:45:24.962Z,7.70
2017-09-10T10:47:52.388Z,6.87
2017-09-10T10:50:19.778Z,6.00
2017-09-10T10:52:47.158Z,6.63
2017-09-10T10:55:14.539Z,7.20
2017-09-10T10:57:41.931Z,7.30
2017-09-10T11:00:09.319Z,7.50
2017-09-10T11:02:36.706Z,7.03
2017-09-10T11:05:04.094Z,6.90
2017-09-10T11:07:31.475Z,7.30
2017-09-10T11:09:58.867Z,6.80
2017-09-10T11:12:26.246Z,6.53
2017-09-10T11:14:53.740Z,7.40
2017-09-10T11:17:21.129Z,7.33
2017-09-10T11:19:48.518Z,6.67
2017-09-10T11:22:15.926Z,7.23
2017-09-10T11:24:43.307Z,7.40
2017-09-10T11:27:11.150Z,6.90
2017-09-10T11:29:38.538Z,7.47
2017-09-10T11:32:05.924Z,8.03
2017-09-10T11:34:33.313Z,7.70
2017-09-10T11:37:00.696Z,7.47
2017-09-10T11:39:28.082Z,8.10
2017-09-10T11:41:55.476Z,7.00
2017-09-10T11:44:23.008Z,7.90
2017-09-10T11:46:50.398Z,7.50
2017-09-10T11:49:17.778Z,7.07
2017-09-10T11:51:45.166Z,7.20
2017-09-10T11:54:12.569Z,7.40
2017-09-10T11:56:39.964Z,7.57
2017-09-10T11:59:07.349Z,7.53
2017-09-10T12:01:34.738Z,6.87
2017-09-10T12:04:02.126Z,7.10
2017-09-10T12:06:29.523Z,7.27
2017-09-10T12:08:56.912Z,6.97
2017-09-10T12:11:24.771Z,7.40
2017-09-10T12:13:52.154Z,7.37
2017-09-10T12:16:19.538Z,7.30
2017-09-10T12:18:47.011Z,7.40
2017-09-10T12:21:14.402Z,7.17
2017-09-10T12:23:41.903Z,6.60
2017-09-10T12:26:09.284Z,6.90
2017-09-10T12:28:36.666Z,7.00
2017-09-10T12:31:04.055Z,7.30
2017-09-10T12:33:31.445Z,6.80
2017-09-10T12:35:58.869Z,7.30
2017-09-10T12:38:26.252Z,6.87
2017-09-10T12:40:53.635Z,7.37
2017-09-10T12:43:21.034Z,7.10
2017-09-10T12:45:48.415Z,7.40
2017-09-10T12:48:15.906Z,7.23
2017-09-10T12:50:43.302Z,7.63
2017-09-10T12:53:10.686Z,7.97
2017-09-10T12:55:38.074Z,7.60
2017-09-10T12:58:05.455Z,7.30
2017-09-10T13:00:32.991Z,8.30
2017-09-10T13:03:00.372Z,7.90
2017-09-10T13:05:27.751Z,6.97
2017-09-10T13:07:55.138Z,7.70
2017-09-10T13:10:22.518Z,7.93
2017-09-10T13:12:49.922Z,7.40
2017-09-10T13:15:17.307Z,7.47
2017-09-10T13:17:44.705Z,7.93
2017-09-10T13:20:12.098Z,8.13
2017-09-10T13:22:39.639Z,7.43
2017-09-10T13:25:07.039Z,7.83
2017-09-10T13:27:34.415Z,7.30
2017-09-10T13:30:01.816Z,7.57
2017-09-10T13:32:29.194Z,8.60
2017-09-10T13:34:56.600Z,8.83
2017-09-10T13:37:23.979Z,8.30
2017-09-10T13:39:51.371Z,8.10
2017-09-10T13:42:18.765Z,7.90
2017-09-10T13:44:46.142Z,7.33
2017-09-10T13:47:13.686Z,8.50
2017-09-10T13:49:41.072Z,8.23
2017-09-10T13:52:08.469Z,7.70
2017-09-10T13:54:35.858Z,7.90
2017-09-10T13:57:03.239Z,8.17
2017-09-10T13:59:30.774Z,7.97
2017-09-10T14:01:58.162Z,8.43
2017-09-10T14:04:25.558Z,7.30
2017-09-10T14:06:52.950Z,8.10
2017-09-10T14:09:20.339Z,8.60
2017-09-10T14:11:47.726Z,8.20
2017-09-10T14:14:15.130Z,8.83
2017-09-10T14:16:42.518Z,8.57
2017-09-10T14:19:09.906Z,8.10
2017-09-10T14:21:37.291Z,8.20
2017-09-10T14:24:04.833Z,8.27
2017-09-10T14:26:32.224Z,8.60
2017-09-10T14:28:59.594Z,7.20
2017-09-10T14:31:26.986Z,8.23
2017-09-10T14:33:54.378Z,8.30
2017-09-10T14:36:21.767Z,7.60
2017-09-10T14:38:49.150Z,7.80
2017-09-10T14:41:16.547Z,8.20
2017-09-10T14:43:43.943Z,8.50
2017-09-10T14:46:11.326Z,8.60
2017-09-10T14:48:38.722Z,7.43
2017-09-10T14:51:06.106Z,7.60
2017-09-10T14:53:33.495Z,7.40
2017-09-10T14:56:00.895Z,6.90
2017-09-10T14:58:28.278Z,7.70
2017-09-10T15:00:55.787Z,6.80
2017-09-10T15:03:23.170Z,6.87
2017-09-10T15:05:50.558Z,7.00
2017-09-10T15:08:17.951Z,6.80
2017-09-10T15:10:45.373Z,7.43
2017-09-10T15:13:13.771Z,6.13
2017-09-10T15:15:41.155Z,6.67
2017-09-10T15:18:08.550Z,6.97
2017-09-10T15:20:35.947Z,6.70
2017-09-10T15:23:03.328Z,7.00
2017-09-10T15:25:30.870Z,7.67
2017-09-10T15:27:58.252Z,6.83
2017-09-10T15:30:25.641Z,7.00
2017-09-10T15:32:53.032Z,7.03
2017-09-10T15:35:20.443Z,7.40
2017-09-10T15:37:47.835Z,6.90
2017-09-10T15:40:15.262Z,6.40
2017-09-10T15:42:42.639Z,6.23
2017-09-10T15:45:10.026Z,7.20
2017-09-10T15:47:37.415Z,7.83
2017-09-10T15:50:05.071Z,9.30
2017-09-10T15:52:32.478Z,6.57
2017-09-10T15:54:59.926Z,7.10
2017-09-10T15:57:27.363Z,7.37
2017-09-10T15:59:54.764Z,7.70
2017-09-10T16:02:22.195Z,7.00
2017-09-10T16:04:49.585Z,8.07
2017-09-10T16:07:16.972Z,8.20
2017-09-10T16:09:44.378Z,8.07
2017-09-10T16:12:11.771Z,8.90
2017-09-10T16:14:39.266Z,9.90
2017-09-10T16:17:06.658Z,8.60
2017-09-10T16:19:34.070Z,12.13
2017-09-10T16:22:01.466Z,23.40
2017-09-10T16:24:28.870Z,57.33
2017-09-10T16:26:56.390Z,18.97
2017-09-10T16:29:23.765Z,24.60
2017-09-10T16:31:51.176Z,37.23
2017-09-10T16:34:18.584Z,28.50
2017-09-10T16:36:45.974Z,11.83
2017-09-10T16:39:13.539Z,11.57
2017-09-10T16:41:40.926Z,16.90
2017-09-10T16:44:08.350Z,18.10
2017-09-10T16:46:35.885Z,21.33
2017-09-10T16:49:03.320Z,14.53
2017-09-10T16:51:30.701Z,8.43
2017-09-10T16:53:58.089Z,14.67
2017-09-10T16:56:25.503Z,7.67
2017-09-10T16:58:52.899Z,13.13
2017-09-10T17:01:20.295Z,13.77
2017-09-10T17:03:47.687Z,6.80
2017-09-10T17:06:15.081Z,7.40
2017-09-10T17:08:42.491Z,6.20
2017-09-10T17:11:09.886Z,6.93
2017-09-10T17:13:37.282Z,6.77
2017-09-10T17:16:04.660Z,6.27
2017-09-10T17:18:32.044Z,7.80
2017-09-10T17:20:59.431Z,8.40
2017-09-10T17:23:26.926Z,6.30
2017-09-10T17:25:54.321Z,7.17
2017-09-10T17:28:21.698Z,6.83
2017-09-10T17:30:49.088Z,7.27
2017-09-10T17:33:16.483Z,6.40
2017-09-10T17:35:43.905Z,6.70
2017-09-10T17:38:11.326Z,6.63
2017-09-10T17:40:38.710Z,6.47
2017-09-10T17:43:06.102Z,6.80
2017-09-10T17:45:33.501Z,6.47
2017-09-10T17:48:00.874Z,6.57
2017-09-10T17:50:28.267Z,7.10
2017-09-10T17:52:55.678Z,6.50
2017-09-10T17:55:23.097Z,6.80
2017-09-10T17:57:52.256Z,6.60
2017-09-10T18:00:19.659Z,7.10
2017-09-10T18:02:47.045Z,8.00
2017-09-10T18:05:14.438Z,7.10
2017-09-10T18:07:42.029Z,7.00
2017-09-10T18:10:09.424Z,6.83
2017-09-10T18:12:36.841Z,6.70
2017-09-10T18:15:04.234Z,6.77
2017-09-10T18:17:31.627Z,7.40
2017-09-10T18:19:59.125Z,7.07
2017-09-10T18:22:26.504Z,7.40
2017-09-10T18:24:53.887Z,7.37
2017-09-10T18:27:21.288Z,7.70
2017-09-10T18:29:48.667Z,7.23
2017-09-10T18:32:16.075Z,7.03
2017-09-10T18:34:43.460Z,7.20
2017-09-10T18:37:10.843Z,7.40
2017-09-10T18:39:38.246Z,6.90
2017-09-10T18:42:05.655Z,7.47
2017-09-10T18:44:33.079Z,7.13
2017-09-10T18:47:00.470Z,7.13
2017-09-10T18:49:27.851Z,7.70
2017-09-10T18:51:55.249Z,8.07
2017-09-10T18:54:22.639Z,7.17
2017-09-10T18:56:50.176Z,7.60
2017-09-10T18:59:17.566Z,7.67
2017-09-10T19:01:44.941Z,7.90
2017-09-10T19:04:12.354Z,7.70
2017-09-10T19:06:39.745Z,7.73
2017-09-10T19:09:07.719Z,7.63
2017-09-10T19:11:35.113Z,7.00
2017-09-10T19:14:02.482Z,7.60
2017-09-10T19:16:29.878Z,7.57
2017-09-10T19:18:57.258Z,7.20
2017-09-10T19:21:24.654Z,7.70
2017-09-10T19:23:52.045Z,7.67
2017-09-10T19:26:19.435Z,8.03
2017-09-10T19:28:46.829Z,7.40
2017-09-10T19:31:14.214Z,8.17
2017-09-10T19:33:42.683Z,7.70
2017-09-10T19:36:10.071Z,7.00
2017-09-10T19:38:37.454Z,7.10
2017-09-10T19:41:04.852Z,7.20
2017-09-10T19:43:32.236Z,7.90
2017-09-10T19:45:59.649Z,7.67
2017-09-10T19:48:27.030Z,6.90
2017-09-10T19:50:54.420Z,7.50
2017-09-10T19:53:21.801Z,7.33
2017-09-10T19:55:49.187Z,7.00
2017-09-10T19:58:16.598Z,7.40
2017-09-10T20:00:44.902Z,7.33
2017-09-10T20:03:12.289Z,8.20
2017-09-10T20:05:39.676Z,7.90
2017-09-10T20:08:07.059Z,7.30
2017-09-10T20:10:34.454Z,6.90
2017-09-10T20:13:01.844Z,7.10
2017-09-10T20:15:29.226Z,7.30
2017-09-10T20:17:56.614Z,7.83
2017-09-10T20:20:24.012Z,6.70
2017-09-10T20:22:51.571Z,6.50
2017-09-10T20:25:18.940Z,6.70
2017-09-10T20:27:46.327Z,6.87
2017-09-10T20:30:13.718Z,7.00
2017-09-10T20:32:41.134Z,7.00
2017-09-10T20:35:08.525Z,6.60
2017-09-10T20:37:35.911Z,6.70
2017-09-10T20:40:03.294Z,6.40
2017-09-10T20:42:30.687Z,6.80
2017-09-10T20:44:58.077Z,7.03
2017-09-10T20:47:25.479Z,7.13
2017-09-10T20:49:52.866Z,7.30
2017-09-10T20:52:20.248Z,6.70
2017-09-10T20:54:47.643Z,6.97
2017-09-10T20:57:15.022Z,7.50
2017-09-10T20:59:42.519Z,7.70
2017-09-10T21:02:09.903Z,7.70
2017-09-10T21:04:37.283Z,7.40
2017-09-10T21:07:04.674Z,7.70
2017-09-10T21:09:32.059Z,7.77
2017-09-10T21:11:59.470Z,8.00
2017-09-10T21:14:26.868Z,7.80
2017-09-10T21:16:54.252Z,8.67
2017-09-10T21:19:21.646Z,8.23
2017-09-10T21:21:49.027Z,7.67
2017-09-10T21:24:16.420Z,7.93
2017-09-10T21:26:43.806Z,8.13
2017-09-10T21:29:11.197Z,8.40
2017-09-10T21:31:38.581Z,8.40
2017-09-10T21:34:05.978Z,9.37
2017-09-10T21:36:33.371Z,8.67
2017-09-10T21:39:00.899Z,8.03
2017-09-10T21:41:28.282Z,8.20
2017-09-10T21:43:55.673Z,8.40
2017-09-10T21:46:23.091Z,8.40
2017-09-10T21:48:56.275Z,8.03
2017-09-10T21:51:23.825Z,8.40
2017-09-10T21:53:51.239Z,8.40
2017-09-10T21:56:18.618Z,8.77
2017-09-10T21:58:46.010Z,7.90
2017-09-10T22:01:13.403Z,8.27
2017-09-10T22:03:40.819Z,8.00
2017-09-10T22:06:08.203Z,8.07
2017-09-10T22:08:35.586Z,8.60
2017-09-10T22:11:02.979Z,8.40
2017-09-10T22:13:30.358Z,8.93
2017-09-10T22:15:57.890Z,8.27
2017-09-10T22:18:25.287Z,8.10
2017-09-10T22:20:52.679Z,8.50
2017-09-10T22:23:20.071Z,7.83
2017-09-10T22:25:47.456Z,8.43
2017-09-10T22:28:14.950Z,7.50
2017-09-10T22:30:42.342Z,7.50
2017-09-10T22:33:09.722Z,7.70
2017-09-10T22:35:37.110Z,7.97
2017-09-10T22:38:04.498Z,7.60
2017-09-10T22:40:31.994Z,8.40
2017-09-10T22:42:59.391Z,8.30
2017-09-10T22:45:26.780Z,7.80
2017-09-10T22:47:54.175Z,8.67
2017-09-10T22:50:21.560Z,7.80
2017-09-10T22:52:48.955Z,7.83
2017-09-10T22:55:16.338Z,8.30
2017-09-10T22:57:43.723Z,8.33
2017-09-10T23:00:11.116Z,8.57
2017-09-10T23:02:38.509Z,9.20
2017-09-10T23:05:06.038Z,9.30
2017-09-10T23:07:33.424Z,9.63
2017-09-10T23:10:00.805Z,9.17
2017-09-10T23:12:28.199Z,9.00
2017-09-10T23:14:55.585Z,9.20
2017-09-10T23:17:23.129Z,11.30
2017-09-10T23:19:50.519Z,10.17
2017-09-10T23:22:17.907Z,10.23
2017-09-10T23:24:45.298Z,10.07
2017-09-10T23:27:12.694Z,10.10
2017-09-10T23:29:40.465Z,9.83
2017-09-10T23:32:07.862Z,10.20
2017-09-10T23:34:35.250Z,10.00
2017-09-10T23:37:02.667Z,10.20
2017-09-10T23:39:30.047Z,11.00
2017-09-10T23:41:57.606Z,10.53
2017-09-10T23:44:24.990Z,10.63
2017-09-10T23:46:52.382Z,10.57
2017-09-10T23:49:19.771Z,9.90
2017-09-10T23:51:47.162Z,10.07
2017-09-10T23:54:14.567Z,10.47
2017-09-10T23:56:41.960Z,11.13
2017-09-10T23:59:09.351Z,10.93
